Time;durP1;ratioP1;P1;durP2;ratioP2;P2;SDS_P1;SDS_P2;PMS_P1;PMS_P2;Temp;Humidity;BMP_temperature;BMP_pressure;BME280_temperature;BME280_humidity;BME280_pressure;Samples;Min_cycle;Max_cycle;Signal;HPM_P1;HPM_P2
2021/08/08 00:00:13;;;;;;;2.83;1.35;;;;;;;26.23;40.50;99315.56;4285781;33;35196;-87
2021/08/08 00:02:42;;;;;;;3.33;1.33;;;;;;;26.23;40.53;99310.22;4262645;33;34309;-87
2021/08/08 00:05:11;;;;;;;4.90;1.70;;;;;;;26.28;40.36;99311.62;4273794;33;33749;-87
2021/08/08 00:07:38;;;;;;;3.12;1.30;;;;;;;26.33;40.16;99304.16;4250389;33;33596;-87
2021/08/08 00:10:09;;;;;;;2.83;1.25;;;;;;;26.31;40.31;99307.87;4273956;33;34947;-87
2021/08/08 00:12:36;;;;;;;2.12;1.50;;;;;;;26.33;40.16;99298.81;4274149;33;34099;-87
2021/08/08 00:15:04;;;;;;;3.53;1.50;;;;;;;26.32;40.10;99305.09;4274236;33;33773;-87
2021/08/08 00:17:33;;;;;;;2.87;1.70;;;;;;;26.24;40.32;99303.94;4274038;33;34345;-87
2021/08/08 00:20:07;;;;;;;3.20;1.58;;;;;;;26.16;40.47;99302.69;4262500;33;34554;-87
2021/08/08 00:22:35;;;;;;;3.42;1.60;;;;;;;26.25;40.30;99305.63;4274105;33;33447;-87
2021/08/08 00:25:03;;;;;;;6.03;2.00;;;;;;;26.13;40.49;99300.22;4273822;33;33609;-87
2021/08/08 00:27:31;;;;;;;3.40;1.40;;;;;;;26.23;40.48;99295.09;4261744;33;34002;-87
2021/08/08 00:30:05;;;;;;;2.60;1.50;;;;;;;26.22;40.67;99308.53;4262536;33;35536;-87
2021/08/08 00:32:33;;;;;;;2.12;1.30;;;;;;;26.30;40.19;99308.81;4262251;33;33873;-87
2021/08/08 00:35:08;;;;;;;4.45;1.55;;;;;;;26.29;40.23;99300.00;4251867;33;33497;-87
2021/08/08 00:37:37;;;;;;;2.03;1.30;;;;;;;26.19;40.36;99305.16;4274149;33;33734;-87
2021/08/08 00:40:05;;;;;;;2.25;1.30;;;;;;;26.22;40.20;99306.72;4274136;33;35024;-87
2021/08/08 00:42:33;;;;;;;2.35;1.37;;;;;;;26.10;40.38;99305.78;4273781;33;34284;-87
2021/08/08 00:45:01;;;;;;;2.40;1.70;;;;;;;26.04;40.47;99311.53;4250501;33;32320;-87
2021/08/08 00:47:29;;;;;;;4.07;1.50;;;;;;;26.01;40.65;99309.06;4262543;33;33893;-87
2021/08/08 00:49:57;;;;;;;2.60;1.40;;;;;;;25.90;41.23;99303.66;4250180;33;33985;-87
2021/08/08 00:52:25;;;;;;;2.08;1.15;;;;;;;25.78;41.40;99301.84;4259427;33;92738;-87
2021/08/08 00:54:53;;;;;;;2.47;1.70;;;;;;;25.86;41.56;99307.50;4262062;33;33719;-87
2021/08/08 00:57:21;;;;;;;2.67;1.60;;;;;;;25.73;42.33;99309.31;4273805;33;33803;-87
2021/08/08 00:59:48;;;;;;;2.33;1.70;;;;;;;25.81;42.39;99314.97;4262248;33;33982;-87
2021/08/08 01:02:18;;;;;;;2.62;1.62;;;;;;;25.77;42.54;99316.13;4238472;33;34281;-87
2021/08/08 01:05:05;;;;;;;3.25;1.77;;;;;;;25.65;42.71;99329.44;4261546;33;33163;-87
2021/08/08 01:07:40;;;;;;;3.62;1.20;;;;;;;25.53;43.41;99333.81;4262174;33;33225;-87
2021/08/08 01:10:09;;;;;;;3.25;1.75;;;;;;;25.51;43.75;99333.03;4262568;33;34966;-87
2021/08/08 01:12:38;;;;;;;2.35;1.60;;;;;;;25.46;43.91;99336.00;4262399;33;34437;-87
2021/08/08 01:15:07;;;;;;;3.78;2.12;;;;;;;25.44;44.20;99353.91;4250087;33;32966;-87
2021/08/08 01:17:37;;;;;;;2.78;1.65;;;;;;;25.38;44.36;99353.44;4261714;33;34071;-87
2021/08/08 01:20:11;;;;;;;1.92;1.50;;;;;;;25.37;44.65;99351.72;4273657;33;35421;-87
2021/08/08 01:22:44;;;;;;;3.97;1.67;;;;;;;25.31;44.81;99341.50;4285593;33;33540;-87
2021/08/08 01:25:12;;;;;;;3.95;1.80;;;;;;;25.36;44.91;99350.91;4250203;33;33178;-88
2021/08/08 01:27:40;;;;;;;4.03;1.83;;;;;;;25.39;44.83;99349.81;4238248;33;33502;-87
2021/08/08 01:30:09;;;;;;;2.62;2.08;;;;;;;25.32;45.04;99341.41;4261646;33;35065;-87
2021/08/08 01:32:37;;;;;;;8.20;1.83;;;;;;;25.33;44.86;99347.56;4261993;33;34935;-87
2021/08/08 01:35:05;;;;;;;6.22;1.42;;;;;;;25.26;45.12;99354.28;4250332;33;32838;-87
2021/08/08 01:37:33;;;;;;;3.87;1.70;;;;;;;25.40;45.01;99351.53;4261977;33;34124;-87
2021/08/08 01:40:12;;;;;;;2.72;1.67;;;;;;;25.28;45.80;99347.03;4273273;33;35035;-87
2021/08/08 01:42:41;;;;;;;6.62;1.98;;;;;;;25.31;45.58;99330.87;4273688;33;33625;-87
2021/08/08 01:45:12;;;;;;;6.97;1.92;;;;;;;25.35;45.46;99327.88;4261977;33;33319;-87
2021/08/08 01:47:44;;;;;;;4.15;2.00;;;;;;;25.30;45.40;99329.16;4261588;33;33523;-87
2021/08/08 01:50:14;;;;;;;4.90;1.80;;;;;;;25.33;45.19;99328.94;4284966;33;33901;-87
2021/08/08 01:52:43;;;;;;;4.47;1.60;;;;;;;25.24;45.39;99325.09;4250022;33;34422;-87
2021/08/08 01:55:15;;;;;;;3.87;1.70;;;;;;;25.12;45.71;99333.06;4273522;33;33189;-87
2021/08/08 01:57:43;;;;;;;4.28;1.70;;;;;;;25.23;45.99;99330.50;4261860;33;33064;-87
2021/08/08 02:00:12;;;;;;;4.35;1.80;;;;;;;25.18;45.82;99328.16;4273554;33;35191;-87
2021/08/08 02:02:57;;;;;;;3.83;1.80;;;;;;;25.12;45.83;99325.06;4250287;33;34145;-87
2021/08/08 02:05:28;;;;;;;3.97;1.60;;;;;;;25.07;46.12;99313.88;4262047;33;33471;-87
2021/08/08 02:07:56;;;;;;;4.68;1.52;;;;;;;25.25;45.88;99310.81;4273458;33;33349;-87
2021/08/08 02:10:24;;;;;;;3.78;1.75;;;;;;;25.22;45.95;99304.88;4238037;33;33922;-87
2021/08/08 02:12:53;;;;;;;3.67;1.40;;;;;;;25.21;46.12;99313.81;4261360;33;34419;-87
2021/08/08 02:15:21;;;;;;;5.35;1.80;;;;;;;25.10;46.92;99317.19;4263627;33;32752;-87
2021/08/08 02:17:49;;;;;;;3.58;1.95;;;;;;;25.08;47.12;99318.25;4266143;33;34042;-87
2021/08/08 02:20:19;;;;;;;3.67;1.75;;;;;;;25.05;47.25;99323.78;4266382;33;34645;-87
2021/08/08 02:22:48;;;;;;;4.37;1.52;;;;;;;24.98;47.32;99322.47;4277822;33;33668;-87
2021/08/08 02:25:16;;;;;;;2.05;1.48;;;;;;;24.89;47.73;99319.47;4277906;33;32806;-87
2021/08/08 02:27:44;;;;;;;2.95;1.80;;;;;;;24.86;47.61;99327.63;4265956;33;33980;-87
2021/08/08 02:30:13;;;;;;;3.40;1.90;;;;;;;24.85;48.03;99328.59;4265941;33;34549;-87
2021/08/08 02:32:41;;;;;;;5.03;2.00;;;;;;;24.78;48.35;99326.44;4265927;33;33940;-87
2021/08/08 02:35:09;;;;;;;4.32;1.67;;;;;;;24.72;48.34;99338.28;4277652;33;34250;-87
2021/08/08 02:37:40;;;;;;;4.82;1.77;;;;;;;24.69;48.77;99341.16;4277763;33;34502;-87
2021/08/08 02:40:08;;;;;;;2.55;1.50;;;;;;;24.73;48.63;99350.66;4277856;33;34632;-87
2021/08/08 02:42:36;;;;;;;4.18;1.50;;;;;;;24.77;48.65;99354.84;4265723;33;34159;-87
2021/08/08 02:45:04;;;;;;;2.85;1.40;;;;;;;24.71;49.12;99355.22;4277603;33;33003;-87
2021/08/08 02:47:32;;;;;;;2.87;1.62;;;;;;;24.61;49.27;99351.44;4277227;33;34040;-87
2021/08/08 02:50:01;;;;;;;2.08;1.50;;;;;;;24.56;49.52;99342.03;4277385;33;35041;-87
2021/08/08 02:52:29;;;;;;;3.05;1.87;;;;;;;24.52;49.29;99346.72;4265644;33;35023;-87
2021/08/08 02:54:57;;;;;;;3.58;1.75;;;;;;;24.51;49.23;99345.00;4277482;33;32740;-87
2021/08/08 02:57:25;;;;;;;4.22;1.90;;;;;;;24.56;49.33;99353.53;4253570;33;33403;-87
2021/08/08 02:59:53;;;;;;;5.25;2.05;;;;;;;24.39;49.83;99351.09;4289213;33;34864;-87
2021/08/08 03:02:21;;;;;;;2.67;1.60;;;;;;;24.53;49.45;99356.38;4265353;33;33415;-87
2021/08/08 03:04:49;;;;;;;2.17;1.80;;;;;;;24.45;49.62;99344.53;4265659;33;33939;-87
2021/08/08 03:07:16;;;;;;;2.60;2.08;;;;;;;24.55;49.43;99362.47;4265151;33;34190;-87
2021/08/08 03:09:44;;;;;;;3.40;1.95;;;;;;;24.32;50.06;99359.56;4265330;33;34798;-87
2021/08/08 03:12:12;;;;;;;3.58;1.62;;;;;;;24.35;50.18;99360.22;4277048;33;34238;-87
2021/08/08 03:14:39;;;;;;;3.22;1.90;;;;;;;24.30;50.26;99375.59;4253566;33;32778;-87
2021/08/08 03:17:08;;;;;;;4.25;2.00;;;;;;;24.13;50.93;99375.78;4265476;33;34102;-87
2021/08/08 03:19:35;;;;;;;5.18;1.95;;;;;;;24.14;50.88;99367.75;4264953;33;34560;-87
2021/08/08 03:22:04;;;;;;;4.43;1.83;;;;;;;24.27;50.66;99369.63;4253404;33;33660;-87
2021/08/08 03:24:33;;;;;;;4.15;2.20;;;;;;;24.19;50.85;99375.41;4276931;33;33263;-87
2021/08/08 03:27:00;;;;;;;3.90;2.35;;;;;;;24.01;51.34;99387.16;4275033;33;34201;-87
2021/08/08 03:29:29;;;;;;;3.17;1.90;;;;;;;23.78;52.04;99401.81;4274723;33;35565;-87
2021/08/08 03:31:56;;;;;;;4.37;2.15;;;;;;;23.70;52.79;99397.94;4262514;33;34303;-87
2021/08/08 03:34:24;;;;;;;5.97;2.15;;;;;;;23.72;52.62;99404.00;4262415;33;33972;-87
2021/08/08 03:36:52;;;;;;;3.85;1.98;;;;;;;23.62;52.38;99409.00;4285979;33;33651;-87
2021/08/08 03:39:25;;;;;;;5.07;1.92;;;;;;;23.66;52.22;99415.81;4250875;33;34123;-87
2021/08/08 03:41:53;;;;;;;6.32;2.20;;;;;;;23.58;52.26;99413.63;4274396;33;34424;-87
2021/08/08 03:44:21;;;;;;;5.30;2.12;;;;;;;23.79;51.31;99405.34;4262605;33;33746;-87
2021/08/08 03:46:49;;;;;;;5.37;2.30;;;;;;;23.82;51.41;99407.81;4250702;33;33286;-87
2021/08/08 03:49:18;;;;;;;4.35;2.08;;;;;;;23.73;51.52;99413.66;4274147;33;34984;-87
2021/08/08 03:51:46;;;;;;;2.55;1.80;;;;;;;23.72;51.53;99409.31;4262135;33;34346;-87
2021/08/08 03:54:14;;;;;;;2.80;2.17;;;;;;;23.70;51.62;99412.03;4262424;33;33778;-87
2021/08/08 03:56:42;;;;;;;3.35;2.17;;;;;;;23.67;51.93;99411.38;4250614;33;33493;-87
2021/08/08 03:59:11;;;;;;;3.58;1.83;;;;;;;23.68;52.08;99405.13;4262739;33;35545;-87
2021/08/08 04:01:39;;;;;;;3.35;2.00;;;;;;;23.49;52.42;99421.28;4274168;33;34497;-87
2021/08/08 04:04:07;;;;;;;6.32;2.00;;;;;;;23.40;52.60;99425.34;4250949;33;32907;-88
2021/08/08 04:06:35;;;;;;;3.40;2.05;;;;;;;23.35;52.73;99424.75;4250508;33;33433;-87
2021/08/08 04:09:03;;;;;;;4.97;1.77;;;;;;;23.37;52.46;99435.25;4274352;33;34648;-87
2021/08/08 04:11:31;;;;;;;3.70;1.92;;;;;;;23.20;52.88;99440.66;4250435;33;34369;-87
2021/08/08 04:13:58;;;;;;;3.17;1.87;;;;;;;23.20;53.02;99440.66;4285893;33;33577;-87
2021/08/08 04:16:26;;;;;;;2.53;1.98;;;;;;;23.22;52.91;99444.94;4273979;33;34738;-87
2021/08/08 04:18:54;;;;;;;3.15;1.80;;;;;;;23.16;53.29;99452.37;4273883;33;34644;-87
2021/08/08 04:21:22;;;;;;;4.30;1.98;;;;;;;23.37;52.67;99462.66;4285680;33;33549;-88
2021/08/08 04:23:50;;;;;;;5.18;1.87;;;;;;;23.34;52.78;99473.41;4238992;33;33896;-87
2021/08/08 04:26:18;;;;;;;4.25;2.03;;;;;;;23.41;52.61;99472.16;4285515;33;34683;-87
2021/08/08 04:28:46;;;;;;;3.60;1.92;;;;;;;23.24;52.96;99480.19;4273826;33;34794;-87
2021/08/08 04:31:14;;;;;;;2.62;1.90;;;;;;;23.42;52.57;99486.28;4285765;33;34578;-87
2021/08/08 04:33:42;;;;;;;4.78;1.85;;;;;;;23.58;52.33;99487.12;4285683;33;33473;-87
2021/08/08 04:36:10;;;;;;;2.37;1.42;;;;;;;23.58;52.10;99487.12;4262123;33;34312;-87
2021/08/08 04:38:39;;;;;;;1.95;1.70;;;;;;;23.67;51.99;99481.28;4249160;33;33967;-87
2021/08/08 04:41:07;;;;;;;2.90;1.45;;;;;;;23.69;52.11;99491.78;4262209;33;34934;-87
2021/08/08 04:43:34;;;;;;;5.18;1.35;;;;;;;23.79;52.23;99487.66;4261967;33;32846;-88
2021/08/08 04:46:02;;;;;;;4.68;1.58;;;;;;;23.76;52.44;99482.53;4262214;33;34007;-87
2021/08/08 04:48:30;;;;;;;2.55;1.25;;;;;;;23.69;52.63;99481.16;4262156;33;34064;-87
2021/08/08 04:51:01;;;;;;;4.05;1.30;;;;;;;23.72;52.26;99496.94;4263021;33;34215;-87
2021/08/08 04:53:29;;;;;;;5.97;1.42;;;;;;;23.76;52.41;99493.13;4273824;33;32962;-87
2021/08/08 04:55:58;;;;;;;3.87;1.42;;;;;;;23.69;52.80;99497.09;4262333;33;33924;-87
2021/08/08 04:58:25;;;;;;;1.60;1.00;;;;;;;23.74;52.65;99503.00;4274012;33;33977;-87
2021/08/08 05:00:53;;;;;;;2.47;1.00;;;;;;;23.87;52.16;99506.63;4250171;33;33578;-87
2021/08/08 05:03:22;;;;;;;1.42;0.90;;;;;;;23.95;52.05;99507.91;4250535;33;32898;-87
2021/08/08 05:05:49;;;;;;;2.28;0.90;;;;;;;23.85;52.60;99508.53;4285635;33;32839;-87
2021/08/08 05:08:17;;;;;;;0.95;0.70;;;;;;;23.69;52.76;99515.69;4261984;33;34583;-87
2021/08/08 05:10:45;;;;;;;1.67;0.90;;;;;;;23.82;52.50;99512.22;4261960;33;34229;-87
2021/08/08 05:13:12;;;;;;;2.05;0.90;;;;;;;23.99;52.17;99519.19;4250212;33;33854;-87
2021/08/08 05:15:40;;;;;;;2.70;0.77;;;;;;;23.92;52.20;99526.69;4250410;33;33860;-87
2021/08/08 05:18:08;;;;;;;2.55;1.00;;;;;;;23.86;51.86;99523.53;4250184;33;34055;-87
2021/08/08 05:20:35;;;;;;;1.35;0.70;;;;;;;23.90;51.93;99522.41;4262103;33;33904;-87
2021/08/08 05:23:03;;;;;;;2.35;1.10;;;;;;;23.97;52.29;99531.72;4273707;33;33756;-87
2021/08/08 05:25:31;;;;;;;4.03;0.90;;;;;;;24.06;52.16;99526.75;4250150;33;33325;-86
2021/08/08 05:27:59;;;;;;;1.67;0.65;;;;;;;24.09;51.77;99523.06;4262298;33;34030;-88
2021/08/08 05:30:27;;;;;;;1.73;0.50;;;;;;;23.86;51.70;99527.06;4285372;33;34954;-87
2021/08/08 05:32:54;;;;;;;6.75;1.27;;;;;;;23.84;51.57;99526.28;4273575;33;33552;-87
2021/08/08 05:35:22;;;;;;;1.65;0.68;;;;;;;23.97;51.65;99526.41;4261958;33;34333;-87
2021/08/08 05:37:50;;;;;;;2.47;0.50;;;;;;;24.07;51.20;99530.25;4273357;33;35082;-88
2021/08/08 05:40:19;;;;;;;1.70;0.50;;;;;;;24.05;51.10;99526.81;4273391;33;33667;-87
2021/08/08 05:42:48;;;;;;;2.72;0.60;;;;;;;24.15;51.47;99533.34;4261891;33;33693;-87
2021/08/08 05:45:19;;;;;;;4.43;0.50;;;;;;;23.76;51.71;99530.31;4273600;33;33519;-87
2021/08/08 05:47:47;;;;;;;1.80;0.60;;;;;;;23.91;50.69;99532.94;4250233;33;33559;-87
2021/08/08 05:50:16;;;;;;;0.50;0.43;;;;;;;23.83;50.76;99531.66;4249423;33;33602;-86
2021/08/08 05:52:48;;;;;;;1.90;0.47;;;;;;;23.83;50.80;99526.34;4250157;33;33660;-87
2021/08/08 05:55:16;;;;;;;0.68;0.45;;;;;;;23.77;50.53;99532.03;4261839;33;34077;-87
2021/08/08 05:57:44;;;;;;;2.70;1.17;;;;;;;23.95;50.72;99534.47;4250138;33;33577;-88
2021/08/08 06:00:13;;;;;;;4.75;0.50;;;;;;;23.96;50.92;99540.66;4249958;33;33551;-87
2021/08/08 06:02:42;;;;;;;1.00;0.47;;;;;;;23.94;51.40;99532.75;4284983;33;34438;-88
2021/08/08 06:05:10;;;;;;;1.23;0.62;;;;;;;23.83;50.91;99529.88;4249522;33;34200;-88
2021/08/08 06:07:38;;;;;;;2.22;0.52;;;;;;;24.27;50.32;99523.75;4259967;33;34523;-87
2021/08/08 06:10:07;;;;;;;0.95;0.50;;;;;;;24.40;49.85;99530.03;4261121;33;33925;-87
2021/08/08 06:12:35;;;;;;;0.60;0.50;;;;;;;24.60;49.45;99529.69;4274646;33;33528;-87
2021/08/08 06:15:03;;;;;;;2.87;0.50;;;;;;;24.79;49.83;99533.78;4261336;33;33802;-88
2021/08/08 06:17:31;;;;;;;0.62;0.40;;;;;;;24.88;49.27;99535.91;4261270;33;34213;-87
2021/08/08 06:19:59;;;;;;;2.65;0.60;;;;;;;24.87;48.49;99541.28;4284756;33;33718;-88
2021/08/08 06:22:27;;;;;;;1.27;0.60;;;;;;;24.82;49.11;99538.91;4249981;33;34200;-87
2021/08/08 06:24:55;;;;;;;0.88;0.47;;;;;;;24.99;48.16;99537.00;4249374;33;32943;-87
2021/08/08 06:27:23;;;;;;;2.78;0.47;;;;;;;24.79;49.33;99536.44;4249189;33;34900;-86
2021/08/08 06:29:51;;;;;;;1.52;0.40;;;;;;;24.86;49.83;99529.78;4261168;33;33729;-87
2021/08/08 06:32:18;;;;;;;1.08;0.40;;;;;;;24.80;49.50;99546.16;4249711;33;33438;-86
2021/08/08 06:34:46;;;;;;;2.17;0.40;;;;;;;24.50;50.57;99547.16;4261537;33;33941;-87
2021/08/08 06:37:14;;;;;;;1.23;0.43;;;;;;;24.65;50.18;99554.19;4272515;33;34256;-87
2021/08/08 06:39:41;;;;;;;0.30;0.30;;;;;;;25.02;50.05;99555.44;4272920;33;34119;-86
2021/08/08 06:42:09;;;;;;;0.95;0.57;;;;;;;25.04;49.45;99561.50;4272748;33;33672;-87
2021/08/08 06:44:40;;;;;;;5.78;0.93;;;;;;;25.11;48.61;99555.72;4273135;33;34048;-87
2021/08/08 06:47:08;;;;;;;1.20;0.47;;;;;;;25.03;49.31;99562.50;4284732;33;34415;-87
2021/08/08 06:49:36;;;;;;;2.37;0.40;;;;;;;24.95;48.52;99557.63;4272726;33;33409;-88
2021/08/08 06:52:04;;;;;;;0.85;0.70;;;;;;;25.31;48.21;99554.47;4249267;33;33705;-87
2021/08/08 06:54:33;;;;;;;4.80;0.65;;;;;;;25.40;48.11;99561.84;4249514;33;34314;-87
2021/08/08 06:57:01;;;;;;;0.88;0.52;;;;;;;25.71;48.09;99556.28;4261214;33;33902;-87
2021/08/08 06:59:31;;;;;;;1.67;0.57;;;;;;;25.57;48.02;99572.31;4272764;33;34312;-87
2021/08/08 07:02:00;;;;;;;;;;;;;;;25.88;47.08;99571.12;4262452;33;33358;-87
2021/08/08 07:04:28;;;;;;;0.90;0.40;;;;;;;25.79;47.11;99567.28;4274340;33;33606;-87
2021/08/08 07:06:56;;;;;;;0.52;0.30;;;;;;;26.15;45.88;99575.50;4274334;33;34977;-88
2021/08/08 07:09:24;;;;;;;0.60;0.40;;;;;;;26.26;46.57;99576.59;4262656;33;33672;-87
2021/08/08 07:11:52;;;;;;;2.35;0.40;;;;;;;26.17;46.55;99568.25;4251427;33;32618;-88
2021/08/08 07:14:21;;;;;;;0.60;0.40;;;;;;;26.19;46.67;99576.16;4274397;33;33264;-87
2021/08/08 07:16:49;;;;;;;1.02;0.65;;;;;;;26.30;46.25;99576.28;4250826;33;33906;-88
2021/08/08 07:19:17;;;;;;;0.47;0.40;;;;;;;26.30;45.89;99578.09;4262631;33;34014;-87
2021/08/08 07:21:45;;;;;;;1.00;0.50;;;;;;;26.36;46.70;99588.34;4286288;33;32933;-87
2021/08/08 07:24:13;;;;;;;1.58;0.50;;;;;;;26.29;45.57;99585.25;4262558;33;34198;-87
2021/08/08 07:26:42;;;;;;;1.80;0.45;;;;;;;26.56;46.19;99587.81;4262406;33;34071;-87
2021/08/08 07:29:10;;;;;;;1.50;0.60;;;;;;;26.77;45.81;99586.38;4262370;33;34641;-87
2021/08/08 07:31:53;;;;;;;2.58;0.40;;;;;;;26.88;45.18;99591.84;4252302;33;33324;-87
2021/08/08 07:34:22;;;;;;;1.15;0.40;;;;;;;27.12;44.29;99594.59;4274480;33;34272;-87
2021/08/08 07:36:50;;;;;;;1.67;0.50;;;;;;;26.81;45.38;99593.22;4251202;33;34434;-89
2021/08/08 07:39:18;;;;;;;0.77;0.52;;;;;;;26.85;45.75;99600.91;4262705;33;34338;-88
2021/08/08 07:41:46;;;;;;;1.90;0.50;;;;;;;27.13;44.74;99597.13;4239197;33;34026;-88
2021/08/08 07:44:13;;;;;;;2.17;0.50;;;;;;;27.25;45.21;99601.59;4286196;33;32579;-89
2021/08/08 07:46:41;;;;;;;2.97;0.47;;;;;;;27.15;46.22;99602.34;4286381;33;34654;-88
2021/08/08 07:49:09;;;;;;;2.00;0.62;;;;;;;27.39;44.13;99603.31;4262687;33;33945;-88
2021/08/08 07:51:37;;;;;;;0.85;0.47;;;;;;;27.33;44.31;99601.91;4274703;33;33617;-88
2021/08/08 07:54:05;;;;;;;0.82;0.50;;;;;;;27.52;45.49;99599.66;4262261;33;34197;-87
2021/08/08 07:56:33;;;;;;;1.33;0.43;;;;;;;27.83;42.83;99608.09;4262678;33;33756;-88
2021/08/08 07:59:01;;;;;;;0.60;0.50;;;;;;;27.40;44.55;99603.22;4250847;33;33753;-88
2021/08/08 08:01:31;;;;;;;2.87;0.52;;;;;;;27.60;44.02;99612.44;4285802;33;32947;-88
2021/08/08 08:03:59;;;;;;;0.52;0.40;;;;;;;27.87;44.31;99614.91;4262758;33;33980;-88
2021/08/08 08:06:27;;;;;;;0.75;0.32;;;;;;;27.94;43.72;99617.00;4274094;33;34031;-88
2021/08/08 08:08:55;;;;;;;1.10;0.47;;;;;;;28.12;43.10;99613.00;4250696;33;33300;-88
2021/08/08 08:11:23;;;;;;;0.75;0.50;;;;;;;28.09;43.68;99617.72;4262855;33;33500;-88
2021/08/08 08:13:51;;;;;;;0.70;0.45;;;;;;;28.02;42.64;99627.19;4250341;33;33316;-88
2021/08/08 08:16:18;;;;;;;0.50;0.50;;;;;;;27.68;45.05;99619.91;4262445;33;34574;-87
2021/08/08 08:18:46;;;;;;;0.80;0.50;;;;;;;28.06;43.61;99625.97;4262960;33;34103;-89
2021/08/08 08:21:14;;;;;;;1.15;0.40;;;;;;;28.06;43.08;99618.81;4274706;33;33791;-88
2021/08/08 08:23:41;;;;;;;1.55;0.50;;;;;;;28.09;44.12;99621.28;4250737;33;33536;-88
2021/08/08 08:26:09;;;;;;;1.35;0.50;;;;;;;28.17;43.31;99623.34;4262310;33;34578;-87
2021/08/08 08:28:38;;;;;;;0.95;0.40;;;;;;;27.99;42.99;99620.25;4262282;33;34246;-88
2021/08/08 08:31:05;;;;;;;0.40;0.40;;;;;;;28.21;43.11;99611.47;4274169;33;33056;-88
2021/08/08 08:33:33;;;;;;;1.67;0.60;;;;;;;28.25;43.56;99609.41;4262630;33;33570;-88
2021/08/08 08:36:01;;;;;;;2.55;0.70;;;;;;;28.40;42.79;99613.59;4262346;33;34902;-88
2021/08/08 08:38:29;;;;;;;1.52;0.50;;;;;;;28.68;43.14;99618.56;4273786;33;33770;-88
2021/08/08 08:40:57;;;;;;;1.45;0.45;;;;;;;28.62;42.15;99619.06;4250544;33;32778;-88
2021/08/08 08:43:26;;;;;;;0.60;0.47;;;;;;;28.51;41.82;99627.84;4262727;33;34022;-88
2021/08/08 08:45:55;;;;;;;1.40;0.47;;;;;;;28.42;42.41;99627.69;4262480;33;34769;-88
2021/08/08 08:48:23;;;;;;;0.60;0.50;;;;;;;28.64;41.60;99623.31;4250538;33;34342;-88
2021/08/08 08:50:55;;;;;;;0.60;0.37;;;;;;;28.64;42.41;99627.81;4250592;33;33843;-89
2021/08/08 08:53:24;;;;;;;0.98;0.50;;;;;;;28.70;41.24;99630.00;4262678;33;34373;-89
2021/08/08 08:55:52;;;;;;;3.53;0.50;;;;;;;28.69;41.14;99622.97;4250779;33;34059;-89
2021/08/08 08:58:20;;;;;;;0.85;0.55;;;;;;;28.81;40.56;99628.19;4250773;33;33722;-88
2021/08/08 09:00:48;;;;;;;1.37;0.50;;;;;;;28.82;41.82;99627.25;4250753;33;32840;-88
2021/08/08 09:03:16;;;;;;;1.40;0.57;;;;;;;28.93;41.70;99626.38;4250538;33;33119;-89
2021/08/08 09:05:44;;;;;;;1.95;0.52;;;;;;;29.13;41.51;99620.31;4262377;33;34447;-89
2021/08/08 09:08:12;;;;;;;0.50;0.40;;;;;;;29.28;40.38;99631.69;4262104;33;34433;-88
2021/08/08 09:10:40;;;;;;;0.65;0.57;;;;;;;29.18;41.27;99626.22;4250323;33;32969;-88
2021/08/08 09:13:09;;;;;;;2.50;0.60;;;;;;;28.95;40.00;99626.28;4273954;33;34336;-87
2021/08/08 09:15:42;;;;;;;1.15;0.40;;;;;;;29.08;40.63;99627.87;4262216;33;35091;-88
2021/08/08 09:18:12;;;;;;;0.55;0.35;;;;;;;29.15;39.54;99628.22;4262468;33;34383;-88
2021/08/08 09:20:43;;;;;;;1.62;0.70;;;;;;;29.25;40.45;99635.47;4250488;33;33093;-88
2021/08/08 09:23:11;;;;;;;0.98;0.40;;;;;;;29.46;40.01;99638.25;4261779;33;33226;-89
2021/08/08 09:25:56;;;;;;;1.58;0.50;;;;;;;29.52;40.31;99635.09;4261060;33;34810;-89
2021/08/08 09:28:30;;;;;;;0.77;0.57;;;;;;;29.88;37.78;99634.78;4262312;33;34344;-88
2021/08/08 09:30:59;;;;;;;1.37;0.45;;;;;;;29.61;39.95;99637.03;4285389;33;33614;-88
2021/08/08 09:33:28;;;;;;;2.03;0.65;;;;;;;29.59;39.67;99638.13;4262438;33;33428;-88
2021/08/08 09:35:56;;;;;;;1.15;0.90;;;;;;;29.80;38.97;99637.25;4285625;33;34038;-88
2021/08/08 09:38:24;;;;;;;1.85;0.73;;;;;;;29.64;39.68;99636.78;4250203;33;33800;-88
2021/08/08 09:40:57;;;;;;;0.65;0.40;;;;;;;29.70;39.37;99641.63;4273785;33;32504;-88
2021/08/08 09:43:26;;;;;;;3.08;0.80;;;;;;;29.94;38.72;99645.03;4273640;33;34406;-89
2021/08/08 09:45:54;;;;;;;2.00;0.52;;;;;;;29.79;39.78;99638.22;4261941;33;35488;-88
2021/08/08 09:48:36;;;;;;;3.83;0.70;;;;;;;30.02;38.08;99642.53;4273430;33;34502;-89
2021/08/08 09:51:08;;;;;;;1.00;0.40;;;;;;;30.05;38.03;99642.31;4261832;33;33515;-89
2021/08/08 09:53:35;;;;;;;0.40;0.40;;;;;;;30.17;38.62;99644.97;4250330;33;33258;-88
2021/08/08 09:56:04;;;;;;;1.08;0.50;;;;;;;30.07;37.61;99640.34;4261727;33;34865;-88
2021/08/08 09:58:37;;;;;;;1.08;0.52;;;;;;;30.24;37.32;99646.16;4238229;33;33524;-88
2021/08/08 10:01:05;;;;;;;0.40;0.32;;;;;;;30.30;37.09;99635.75;4249879;33;33089;-88
2021/08/08 10:03:34;;;;;;;0.70;0.57;;;;;;;30.53;36.53;99641.88;4274729;33;33735;-88
2021/08/08 10:06:04;;;;;;;0.65;0.50;;;;;;;30.51;37.34;99643.84;4238755;33;34097;-88
2021/08/08 10:08:32;;;;;;;1.37;0.60;;;;;;;30.31;36.03;99639.28;4273387;33;33548;-88
2021/08/08 10:11:02;;;;;;;1.20;0.50;;;;;;;30.42;35.83;99637.44;4249921;33;33515;-88
2021/08/08 10:13:52;;;;;;;1.58;0.75;;;;;;;30.19;36.46;99637.63;4261558;33;33624;-89
2021/08/08 10:16:21;;;;;;;1.12;0.60;;;;;;;30.27;36.65;99643.19;4261930;33;34789;-88
2021/08/08 10:18:56;;;;;;;3.45;0.68;;;;;;;30.33;36.95;99642.69;4249571;33;33497;-89
2021/08/08 10:21:24;;;;;;;1.02;0.80;;;;;;;30.04;36.47;99645.97;4238167;33;33220;-88
2021/08/08 10:23:52;;;;;;;2.12;0.52;;;;;;;29.99;36.73;99642.81;4273492;33;32940;-88
2021/08/08 10:26:21;;;;;;;1.87;0.50;;;;;;;30.20;35.91;99644.69;4261382;33;34697;-88
2021/08/08 10:28:51;;;;;;;1.67;0.77;;;;;;;30.11;36.95;99646.31;4261617;33;33540;-88
2021/08/08 10:31:23;;;;;;;1.25;0.50;;;;;;;30.39;36.35;99648.44;4273125;33;32790;-89
2021/08/08 10:33:53;;;;;;;1.58;0.50;;;;;;;30.69;37.27;99639.62;4249395;33;33264;-88
2021/08/08 10:36:25;;;;;;;1.55;0.70;;;;;;;30.49;36.69;99648.50;4250048;33;34128;-88
2021/08/08 10:39:14;;;;;;;1.17;0.60;;;;;;;30.70;35.88;99644.00;4262928;33;33756;-88
2021/08/08 10:41:56;;;;;;;0.60;0.60;;;;;;;30.68;34.59;99635.22;4251123;33;33600;-88
2021/08/08 10:44:26;;;;;;;1.05;0.80;;;;;;;30.84;36.37;99638.28;4251094;33;34255;-88
2021/08/08 10:46:54;;;;;;;1.80;0.60;;;;;;;30.77;35.32;99634.44;4263077;33;35454;-88
2021/08/08 10:49:30;;;;;;;2.05;0.90;;;;;;;30.64;35.98;99628.44;4275809;33;34261;-89
2021/08/08 10:52:03;;;;;;;0.68;0.52;;;;;;;30.73;35.27;99623.12;4262874;33;33849;-89
2021/08/08 10:54:45;;;;;;;0.57;0.57;;;;;;;30.91;34.78;99628.75;4286409;33;34029;-88
2021/08/08 10:57:14;;;;;;;1.00;0.55;;;;;;;30.78;35.77;99631.59;4274759;33;34857;-88
2021/08/08 10:59:43;;;;;;;1.70;0.60;;;;;;;30.83;36.42;99627.69;4262809;33;34818;-88
2021/08/08 11:02:14;;;;;;;1.60;0.70;;;;;;;30.84;35.61;99632.91;4262754;33;33967;-88
2021/08/08 11:04:43;;;;;;;0.98;0.70;;;;;;;31.04;34.60;99623.19;4251191;33;33220;-88
2021/08/08 11:07:11;;;;;;;1.12;0.73;;;;;;;31.08;34.08;99628.16;4250761;33;33798;-88
2021/08/08 11:09:40;;;;;;;1.10;0.65;;;;;;;30.71;36.11;99624.22;4262791;33;34209;-88
2021/08/08 11:12:08;;;;;;;0.95;0.62;;;;;;;30.85;36.41;99618.53;4262829;33;34217;-88
2021/08/08 11:14:48;;;;;;;1.10;0.75;;;;;;;30.78;35.90;99617.34;4263119;33;34004;-88
2021/08/08 11:17:15;;;;;;;4.87;0.82;;;;;;;30.71;36.49;99616.19;4262810;33;35449;-88
2021/08/08 11:19:43;;;;;;;1.48;0.60;;;;;;;30.99;35.79;99618.22;4274187;33;33740;-88
2021/08/08 11:22:18;;;;;;;0.88;0.68;;;;;;;30.87;35.96;99619.25;4274403;33;32842;-88
2021/08/08 11:24:56;;;;;;;1.25;0.80;;;;;;;30.78;36.07;99620.87;4250858;33;33315;-89
2021/08/08 11:27:44;;;;;;;0.93;0.55;;;;;;;30.74;36.17;99626.63;4250593;33;34882;-88
2021/08/08 11:30:13;;;;;;;3.03;0.62;;;;;;;30.58;36.11;99628.94;4250933;33;33770;-87
2021/08/08 11:32:41;;;;;;;2.30;0.60;;;;;;;30.65;36.20;99625.59;4274360;33;32805;-88
2021/08/08 11:35:10;;;;;;;1.35;0.60;;;;;;;30.65;35.57;99624.75;4251063;33;33406;-88
2021/08/08 11:37:40;;;;;;;1.05;0.70;;;;;;;30.76;36.62;99638.13;4274388;33;35071;-88
2021/08/08 11:40:20;;;;;;;2.17;0.73;;;;;;;30.96;36.36;99634.59;4286019;33;34241;-88
2021/08/08 11:42:55;;;;;;;1.33;0.80;;;;;;;30.99;36.12;99628.94;4250703;33;32921;-88